createdAt,value
2018-12-31T00:01:45.934Z,6.60
2018-12-31T00:04:51.071Z,8.50
2018-12-31T00:07:56.292Z,11.27
2018-12-31T00:11:01.496Z,8.90
2018-12-31T00:14:06.653Z,7.97
2018-12-31T00:17:11.818Z,7.90
2018-12-31T00:20:16.989Z,7.83
2018-12-31T00:23:22.223Z,9.63
2018-12-31T00:26:27.367Z,8.07
2018-12-31T00:29:32.542Z,11.07
2018-12-31T00:32:37.811Z,9.83
2018-12-31T00:35:42.983Z,10.67
2018-12-31T00:38:48.156Z,8.40
2018-12-31T00:41:53.304Z,8.77
2018-12-31T00:44:58.542Z,8.17
2018-12-31T00:48:03.738Z,8.97
2018-12-31T00:51:08.916Z,9.13
2018-12-31T00:54:14.097Z,8.10
2018-12-31T00:57:19.282Z,8.13
2018-12-31T01:00:24.465Z,7.97
2018-12-31T01:03:29.681Z,8.70
2018-12-31T01:06:34.816Z,8.50
2018-12-31T01:09:40.040Z,10.53
2018-12-31T01:12:45.188Z,8.90
2018-12-31T01:15:50.319Z,8.80
2018-12-31T01:18:55.502Z,11.60
2018-12-31T01:22:06.073Z,9.67
2018-12-31T01:25:11.243Z,9.73
2018-12-31T01:28:16.348Z,9.43
2018-12-31T01:31:21.478Z,9.23
2018-12-31T01:34:26.606Z,8.90
2018-12-31T01:37:31.947Z,8.10
2018-12-31T01:40:37.069Z,7.90
2018-12-31T01:43:42.283Z,8.47
2018-12-31T01:46:47.468Z,6.80
2018-12-31T01:49:52.686Z,8.23
2018-12-31T01:52:57.848Z,9.03
2018-12-31T01:56:02.985Z,7.93
2018-12-31T01:59:08.253Z,7.93
2018-12-31T02:02:13.349Z,9.13
2018-12-31T02:05:18.564Z,7.40
2018-12-31T02:08:23.797Z,7.43
2018-12-31T02:11:28.999Z,7.57
2018-12-31T02:14:34.204Z,7.70
2018-12-31T02:17:39.595Z,7.30
2018-12-31T02:20:44.820Z,8.37
2018-12-31T02:23:49.955Z,8.43
2018-12-31T02:26:55.150Z,8.43
2018-12-31T02:30:00.448Z,12.20
2018-12-31T02:33:05.631Z,8.33
2018-12-31T02:36:10.892Z,7.67
2018-12-31T02:39:16.079Z,6.53
2018-12-31T02:42:21.233Z,6.13
2018-12-31T02:45:26.333Z,5.47
2018-12-31T02:48:31.523Z,5.13
2018-12-31T02:51:36.636Z,4.70
2018-12-31T02:54:41.806Z,5.97
2018-12-31T02:57:46.973Z,7.10
2018-12-31T03:00:52.236Z,7.10
2018-12-31T03:03:57.407Z,7.73
2018-12-31T03:07:02.563Z,6.27
2018-12-31T03:10:07.932Z,5.87
2018-12-31T03:13:13.125Z,6.00
2018-12-31T03:16:18.359Z,5.47
2018-12-31T03:19:23.647Z,7.77
2018-12-31T03:22:28.758Z,6.60
2018-12-31T03:25:33.915Z,7.20
2018-12-31T03:28:39.106Z,7.10
2018-12-31T03:31:44.282Z,6.30
2018-12-31T03:34:49.466Z,6.90
2018-12-31T03:37:54.671Z,5.10
2018-12-31T03:41:00.265Z,5.53
2018-12-31T03:44:05.404Z,4.77
2018-12-31T03:47:12.293Z,5.77
2018-12-31T03:50:17.569Z,4.50
2018-12-31T03:53:22.779Z,5.37
2018-12-31T03:56:27.921Z,7.10
2018-12-31T03:59:33.168Z,7.87
2018-12-31T04:02:38.428Z,8.03
2018-12-31T04:05:43.628Z,6.60
2018-12-31T04:08:48.831Z,6.43
2018-12-31T04:11:53.921Z,7.23
2018-12-31T04:14:59.129Z,7.13
2018-12-31T04:18:04.278Z,6.20
2018-12-31T04:21:09.494Z,6.40
2018-12-31T04:24:14.675Z,7.73
2018-12-31T04:27:19.886Z,6.13
2018-12-31T04:30:25.035Z,6.37
2018-12-31T04:33:30.252Z,7.63
2018-12-31T04:36:35.377Z,5.87
2018-12-31T04:39:40.486Z,6.10
2018-12-31T04:42:45.738Z,6.50
2018-12-31T04:45:50.920Z,6.43
2018-12-31T04:48:56.108Z,5.93
2018-12-31T04:52:01.590Z,5.53
2018-12-31T04:55:06.775Z,6.87
2018-12-31T04:58:11.961Z,6.13
2018-12-31T05:01:17.119Z,6.37
2018-12-31T05:04:22.330Z,5.67
2018-12-31T05:07:27.507Z,5.90
2018-12-31T05:10:32.641Z,6.40
2018-12-31T05:13:37.897Z,6.63
2018-12-31T05:16:42.940Z,6.43
2018-12-31T05:19:48.170Z,6.10
2018-12-31T05:22:53.354Z,6.97
2018-12-31T05:25:58.464Z,6.60
2018-12-31T05:29:03.564Z,6.30
2018-12-31T05:32:08.721Z,7.10
2018-12-31T05:35:13.929Z,6.83
2018-12-31T05:38:19.068Z,9.53
2018-12-31T05:41:24.587Z,8.37
2018-12-31T05:44:29.750Z,17.10
2018-12-31T05:47:34.959Z,13.03
2018-12-31T05:50:40.086Z,11.63
2018-12-31T05:53:45.286Z,10.53
2018-12-31T05:56:50.443Z,11.60
2018-12-31T05:59:55.600Z,10.53
2018-12-31T06:03:00.715Z,11.63
2018-12-31T06:06:05.833Z,11.27
2018-12-31T06:09:11.065Z,9.13
2018-12-31T06:12:16.259Z,8.67
2018-12-31T06:15:21.429Z,11.30
2018-12-31T06:18:26.624Z,10.43
2018-12-31T06:21:31.711Z,8.40
2018-12-31T06:24:36.924Z,9.37
2018-12-31T06:27:42.094Z,8.33
2018-12-31T06:30:47.292Z,11.57
2018-12-31T06:33:52.576Z,12.17
2018-12-31T06:36:57.730Z,14.70
2018-12-31T06:40:02.894Z,17.87
2018-12-31T06:43:08.101Z,19.27
2018-12-31T06:46:13.265Z,19.57
2018-12-31T06:49:18.471Z,23.53
2018-12-31T06:52:23.639Z,25.63
2018-12-31T06:55:28.870Z,17.80
2018-12-31T06:58:34.090Z,18.53
2018-12-31T07:01:39.216Z,17.43
2018-12-31T07:04:44.414Z,18.53
2018-12-31T07:07:49.632Z,17.03
2018-12-31T07:10:54.776Z,10.77
2018-12-31T07:13:59.976Z,13.53
2018-12-31T07:17:05.152Z,13.87
2018-12-31T07:20:10.348Z,13.23
2018-12-31T07:23:15.554Z,14.80
2018-12-31T07:26:21.764Z,17.77
2018-12-31T07:29:26.927Z,19.57
2018-12-31T07:32:32.117Z,17.83
2018-12-31T07:35:37.281Z,19.20
2018-12-31T07:38:42.481Z,16.17
2018-12-31T07:41:47.636Z,16.57
2018-12-31T07:44:52.830Z,15.07
2018-12-31T07:47:59.225Z,16.70
2018-12-31T07:51:04.456Z,17.00
2018-12-31T07:54:09.654Z,14.53
2018-12-31T07:57:14.749Z,12.23
2018-12-31T08:00:19.957Z,15.00
2018-12-31T08:03:25.140Z,16.30
2018-12-31T08:06:30.317Z,14.10
2018-12-31T08:09:35.536Z,14.00
2018-12-31T08:12:40.719Z,13.83
2018-12-31T08:15:46.472Z,10.67
2018-12-31T08:18:51.648Z,10.53
2018-12-31T08:21:56.840Z,10.67
2018-12-31T08:25:02.038Z,13.33
2018-12-31T08:28:07.203Z,14.77
2018-12-31T08:31:12.378Z,17.77
2018-12-31T08:34:17.641Z,15.37
2018-12-31T08:37:22.782Z,17.53
2018-12-31T08:40:27.966Z,11.20
2018-12-31T08:43:33.166Z,11.10
2018-12-31T08:46:38.308Z,11.47
2018-12-31T08:49:43.532Z,13.30
2018-12-31T08:52:48.755Z,11.17
2018-12-31T08:55:53.887Z,8.20
2018-12-31T08:58:59.083Z,9.93
2018-12-31T09:02:04.227Z,9.10
2018-12-31T09:05:09.470Z,10.80
2018-12-31T09:08:14.640Z,13.70
2018-12-31T09:11:19.826Z,10.00
2018-12-31T09:14:24.993Z,8.47
2018-12-31T09:17:30.085Z,12.60
2018-12-31T09:20:35.316Z,12.57
2018-12-31T09:23:40.478Z,15.20
2018-12-31T09:26:45.654Z,10.07
2018-12-31T09:29:50.842Z,35.23
2018-12-31T09:32:55.976Z,15.13
2018-12-31T09:36:01.117Z,13.30
2018-12-31T09:39:08.077Z,12.77
2018-12-31T09:42:13.256Z,13.43
2018-12-31T09:45:18.441Z,14.37
2018-12-31T09:48:23.647Z,20.93
2018-12-31T09:51:28.827Z,22.13
2018-12-31T09:54:34.079Z,22.40
2018-12-31T09:57:39.274Z,17.43
2018-12-31T10:00:44.443Z,14.03
2018-12-31T10:03:49.614Z,13.03
2018-12-31T10:06:54.777Z,13.53
2018-12-31T10:09:59.918Z,12.80
2018-12-31T10:13:05.099Z,10.87
2018-12-31T10:16:10.276Z,12.33
2018-12-31T10:19:15.430Z,13.23
2018-12-31T10:22:20.557Z,11.87
2018-12-31T10:25:25.726Z,12.40
2018-12-31T10:28:30.920Z,15.90
2018-12-31T10:31:36.065Z,12.03
2018-12-31T10:34:41.349Z,11.03
2018-12-31T10:37:46.531Z,16.93
2018-12-31T10:40:51.724Z,13.53
2018-12-31T10:43:56.921Z,10.30
2018-12-31T10:47:02.141Z,8.63
2018-12-31T10:50:07.690Z,9.53
2018-12-31T10:53:12.955Z,7.90
2018-12-31T10:56:18.054Z,7.80
2018-12-31T10:59:23.289Z,7.73
2018-12-31T11:02:28.399Z,7.70
2018-12-31T11:05:33.597Z,8.13
2018-12-31T11:08:38.753Z,9.33
2018-12-31T11:11:44.240Z,6.33
2018-12-31T11:14:49.419Z,9.37
2018-12-31T11:17:54.582Z,4.80
2018-12-31T11:20:59.845Z,10.97
2018-12-31T11:24:05.127Z,5.07
2018-12-31T11:27:11.182Z,7.37
2018-12-31T11:30:16.496Z,7.17
2018-12-31T11:33:21.652Z,8.70
2018-12-31T11:36:26.826Z,7.57
2018-12-31T11:39:32.273Z,8.50
2018-12-31T11:42:37.478Z,7.90
2018-12-31T11:45:42.609Z,6.90
2018-12-31T11:48:47.853Z,7.43
2018-12-31T11:51:52.973Z,7.63
2018-12-31T11:54:58.215Z,5.43
2018-12-31T11:58:03.416Z,8.17
2018-12-31T12:01:08.747Z,8.03
2018-12-31T12:04:13.921Z,10.33
2018-12-31T12:07:19.111Z,5.93
2018-12-31T12:10:24.247Z,5.73
2018-12-31T12:13:29.471Z,5.10
2018-12-31T12:16:34.623Z,5.67
2018-12-31T12:19:39.815Z,5.10
2018-12-31T12:22:44.995Z,5.63
2018-12-31T12:25:50.246Z,5.83
2018-12-31T12:28:55.446Z,5.60
2018-12-31T12:32:00.615Z,6.80
2018-12-31T12:35:05.847Z,8.87
2018-12-31T12:38:11.027Z,11.97
2018-12-31T12:41:16.222Z,4.57
2018-12-31T12:44:21.598Z,5.20
2018-12-31T12:47:26.758Z,5.60
2018-12-31T12:50:31.979Z,4.67
2018-12-31T12:53:37.341Z,5.10
2018-12-31T12:56:42.512Z,6.27
2018-12-31T12:59:47.786Z,5.77
2018-12-31T13:02:53.007Z,5.90
2018-12-31T13:05:58.628Z,5.90
2018-12-31T13:09:04.747Z,6.63
2018-12-31T13:12:10.256Z,6.10
2018-12-31T13:15:15.586Z,5.17
2018-12-31T13:18:22.154Z,5.70
2018-12-31T13:21:27.403Z,5.83
2018-12-31T13:24:32.728Z,6.17
2018-12-31T13:27:37.879Z,5.80
2018-12-31T13:30:43.262Z,8.40
2018-12-31T13:33:48.462Z,7.70
2018-12-31T13:36:53.659Z,6.73
2018-12-31T13:39:59.054Z,7.60
2018-12-31T13:43:04.331Z,6.53
2018-12-31T13:46:09.563Z,6.80
2018-12-31T13:49:14.702Z,7.23
2018-12-31T13:52:19.878Z,8.83
2018-12-31T13:55:25.086Z,7.63
2018-12-31T13:58:30.272Z,7.40
2018-12-31T14:01:35.444Z,8.33
2018-12-31T14:04:40.953Z,7.77
2018-12-31T14:07:46.165Z,8.07
2018-12-31T14:10:51.421Z,7.83
2018-12-31T14:13:56.566Z,8.17
2018-12-31T14:17:02.157Z,8.30
2018-12-31T14:20:07.506Z,67.87
2018-12-31T14:23:12.949Z,8.90
2018-12-31T14:26:18.288Z,10.97
2018-12-31T14:29:23.798Z,9.50
2018-12-31T14:32:28.992Z,10.33
2018-12-31T14:35:34.318Z,8.30
2018-12-31T14:38:39.509Z,8.87
2018-12-31T14:41:45.871Z,10.40
2018-12-31T14:44:51.108Z,10.80
2018-12-31T14:47:56.303Z,8.37
2018-12-31T14:51:01.494Z,9.83
2018-12-31T14:54:06.909Z,8.30
2018-12-31T14:57:12.125Z,7.77
2018-12-31T15:00:17.468Z,9.40
2018-12-31T15:03:22.755Z,9.70
2018-12-31T15:06:27.913Z,9.50
2018-12-31T15:09:33.251Z,9.83
2018-12-31T15:12:38.421Z,10.90
2018-12-31T15:15:44.333Z,9.77
2018-12-31T15:18:49.588Z,9.70
2018-12-31T15:21:55.002Z,11.00
2018-12-31T15:25:00.185Z,193.80
2018-12-31T15:28:05.623Z,11.43
2018-12-31T15:31:10.828Z,21.10
2018-12-31T15:34:16.065Z,16.47
2018-12-31T15:37:21.223Z,20.00
2018-12-31T15:40:26.582Z,16.33
2018-12-31T15:43:31.718Z,16.50
2018-12-31T15:46:36.897Z,13.77
2018-12-31T15:49:42.167Z,403.37
2018-12-31T15:52:47.431Z,116.53
2018-12-31T15:55:52.763Z,106.47
2018-12-31T15:58:58.070Z,56.43
2018-12-31T16:02:08.016Z,57.63
2018-12-31T16:05:13.181Z,35.90
2018-12-31T16:08:18.525Z,25.10
2018-12-31T16:11:25.155Z,31.80
2018-12-31T16:14:30.595Z,21.97
2018-12-31T16:17:35.937Z,15.27
2018-12-31T16:20:41.226Z,19.73
2018-12-31T16:23:46.442Z,16.23
2018-12-31T16:26:52.197Z,16.43
2018-12-31T16:29:57.449Z,14.10
2018-12-31T16:33:02.709Z,13.80
2018-12-31T16:36:07.911Z,16.30
2018-12-31T16:39:13.178Z,14.57
2018-12-31T16:42:18.871Z,21.77
2018-12-31T16:45:24.261Z,15.77
2018-12-31T16:48:32.248Z,18.73
2018-12-31T16:51:37.541Z,15.23
2018-12-31T16:54:42.712Z,16.33
2018-12-31T16:57:47.934Z,13.97
2018-12-31T17:00:53.885Z,17.30
2018-12-31T17:03:59.077Z,15.10
2018-12-31T17:07:04.271Z,15.10
2018-12-31T17:10:10.797Z,16.23
2018-12-31T17:13:16.438Z,19.00
2018-12-31T17:16:21.568Z,17.13
2018-12-31T17:19:28.658Z,20.90
2018-12-31T17:22:33.831Z,35.23
2018-12-31T17:25:39.152Z,34.83
2018-12-31T17:28:45.389Z,36.70
2018-12-31T17:31:50.591Z,49.90
2018-12-31T17:34:55.863Z,43.57
2018-12-31T17:38:01.391Z,26.87
2018-12-31T17:41:06.576Z,20.03
2018-12-31T17:44:12.072Z,19.40
2018-12-31T17:47:17.356Z,24.93
2018-12-31T17:50:22.537Z,19.50
2018-12-31T17:53:27.763Z,18.40
2018-12-31T17:56:33.003Z,19.67
2018-12-31T17:59:38.713Z,17.87
2018-12-31T18:02:44.085Z,19.20
2018-12-31T18:05:49.245Z,24.10
2018-12-31T18:08:54.390Z,21.53
2018-12-31T18:11:59.678Z,19.73
2018-12-31T18:15:05.091Z,20.43
2018-12-31T18:18:10.431Z,18.33
2018-12-31T18:21:15.593Z,18.50
2018-12-31T18:24:20.804Z,17.77
2018-12-31T18:27:26.123Z,19.53
2018-12-31T18:30:31.373Z,19.30
2018-12-31T18:33:36.556Z,16.90
2018-12-31T18:36:41.886Z,22.57
2018-12-31T18:39:49.376Z,19.57
2018-12-31T18:42:54.017Z,77.67
2018-12-31T18:45:59.442Z,81.10
2018-12-31T18:49:04.695Z,62.23
2018-12-31T18:52:09.900Z,59.33
2018-12-31T18:55:15.171Z,45.03
2018-12-31T18:58:20.418Z,47.77
2018-12-31T19:01:25.587Z,43.53
2018-12-31T19:04:30.861Z,48.50
2018-12-31T19:07:36.182Z,39.33
2018-12-31T19:10:41.372Z,36.03
2018-12-31T19:13:46.693Z,34.30
2018-12-31T19:16:51.844Z,37.07
2018-12-31T19:19:57.631Z,32.57
2018-12-31T19:23:02.788Z,37.60
2018-12-31T19:26:08.126Z,30.93
2018-12-31T19:29:13.356Z,25.40
2018-12-31T19:32:18.546Z,25.60
2018-12-31T19:35:23.683Z,24.90
2018-12-31T19:38:28.915Z,27.80
2018-12-31T19:41:34.081Z,28.03
2018-12-31T19:44:39.404Z,28.63
2018-12-31T19:47:44.550Z,24.77
2018-12-31T19:50:49.736Z,23.33
2018-12-31T19:53:55.078Z,25.90
2018-12-31T19:57:00.228Z,21.57
2018-12-31T20:00:05.882Z,23.47
2018-12-31T20:03:11.683Z,29.37
2018-12-31T20:06:16.922Z,35.93
2018-12-31T20:09:22.104Z,40.80
2018-12-31T20:12:27.328Z,49.17
2018-12-31T20:15:32.542Z,51.37
2018-12-31T20:18:37.679Z,74.27
2018-12-31T20:21:42.928Z,73.43
2018-12-31T20:24:48.149Z,47.90
2018-12-31T20:27:53.475Z,45.87
2018-12-31T20:30:58.643Z,56.90
2018-12-31T20:34:03.945Z,45.23
2018-12-31T20:37:09.268Z,43.43
2018-12-31T20:40:14.450Z,40.17
2018-12-31T20:43:19.597Z,40.93
2018-12-31T20:46:24.859Z,38.93
2018-12-31T20:49:30.515Z,39.07
2018-12-31T20:52:35.712Z,40.13
2018-12-31T20:55:40.990Z,40.87
2018-12-31T20:58:46.165Z,38.23
2018-12-31T21:01:51.308Z,34.43
2018-12-31T21:04:56.527Z,39.23
2018-12-31T21:08:01.734Z,39.33
2018-12-31T21:11:07.290Z,33.80
2018-12-31T21:14:12.491Z,38.70
2018-12-31T21:17:17.670Z,43.27
2018-12-31T21:20:22.896Z,44.97
2018-12-31T21:23:28.276Z,39.63
2018-12-31T21:26:33.726Z,42.07
2018-12-31T21:29:38.954Z,34.73
2018-12-31T21:32:44.172Z,29.90
2018-12-31T21:35:49.358Z,28.40
2018-12-31T21:38:54.663Z,27.73
2018-12-31T21:41:59.887Z,27.23
2018-12-31T21:45:05.496Z,31.20
2018-12-31T21:48:10.666Z,34.00
2018-12-31T21:51:15.933Z,33.83
2018-12-31T21:54:21.110Z,37.07
2018-12-31T21:57:26.405Z,36.73
2018-12-31T22:00:31.568Z,35.87
2018-12-31T22:03:36.837Z,36.33
2018-12-31T22:06:42.293Z,37.33
2018-12-31T22:09:47.569Z,29.43
2018-12-31T22:12:52.861Z,18.73
2018-12-31T22:15:58.035Z,24.27
2018-12-31T22:19:03.286Z,76.83
2018-12-31T22:22:08.501Z,72.60
2018-12-31T22:25:13.854Z,95.23
2018-12-31T22:28:19.148Z,87.57
2018-12-31T22:31:24.367Z,75.20
2018-12-31T22:34:29.534Z,69.23
2018-12-31T22:37:34.753Z,69.70
2018-12-31T22:40:40.335Z,68.07
2018-12-31T22:43:45.570Z,65.47
2018-12-31T22:46:50.937Z,74.00
2018-12-31T22:49:56.337Z,58.83
2018-12-31T22:53:01.491Z,52.47
2018-12-31T22:56:06.677Z,50.43
2018-12-31T22:59:13.359Z,36.27
2018-12-31T23:02:18.514Z,38.83
2018-12-31T23:05:23.716Z,73.70
2018-12-31T23:08:29.199Z,41.30
2018-12-31T23:11:34.522Z,744.90
2018-12-31T23:14:39.811Z,270.40
2018-12-31T23:17:45.228Z,242.83
2018-12-31T23:20:50.550Z,268.13
2018-12-31T23:23:55.810Z,216.43
2018-12-31T23:27:02.418Z,240.03
2018-12-31T23:30:08.978Z,349.70
2018-12-31T23:33:14.256Z,248.27
2018-12-31T23:36:19.453Z,190.33
2018-12-31T23:39:24.762Z,108.67
2018-12-31T23:42:30.097Z,110.33
2018-12-31T23:45:35.317Z,226.30
2018-12-31T23:48:40.637Z,232.83
2018-12-31T23:51:45.926Z,236.67
2018-12-31T23:54:51.169Z,135.77
2018-12-31T23:57:56.532Z,68.30
